Franklinton, North Carolina
Current Conditions -  °F | °C
As of 12:35 PM on Thursday 30 Oct 2014 (Local Time) from KLHZ Reporting Station
Scattered Clouds Scattered Clouds  
Wind Chill: 61°   Ceiling: Unl
Heat Index: 61°   Visibility: 10mi
Dew Point: 45°   Wind: 5mph
Humidity: 55%   Direction: 360°N
Pressure: 30.04"   Gusts: NA
Location:  36.1°N, 78.46°W
Report Text: KLHZ 301635Z AUTO 36004KT 10SM SCT041 SCT049 16/07 A3004 RMK AO2
Loading
Personal Weather Stations






























Interactive Weather Map
Tropical Storm Tracking
New forecast layout! Learn more

10-Day Weather Forecast

Advertisements
Track Severe Weather on mobile